sensor_id;sensor_type;location;lat;lon;timestamp;temperature;humidity
23731;DHT22;12046;44.702;10.622;2022-11-15T00:00:53;9.50;99.90
23731;DHT22;12046;44.702;10.622;2022-11-15T00:03:27;9.50;99.90
23731;DHT22;12046;44.702;10.622;2022-11-15T00:05:53;9.40;99.90
23731;DHT22;12046;44.702;10.622;2022-11-15T00:08:19;9.40;99.90
23731;DHT22;12046;44.702;10.622;2022-11-15T00:10:55;9.40;99.90
23731;DHT22;12046;44.702;10.622;2022-11-15T00:13:21;9.40;99.90
23731;DHT22;12046;44.702;10.622;2022-11-15T00:15:47;9.30;99.90
23731;DHT22;12046;44.702;10.622;2022-11-15T00:18:14;9.40;99.90
23731;DHT22;12046;44.702;10.622;2022-11-15T00:20:40;9.40;99.90
23731;DHT22;12046;44.702;10.622;2022-11-15T00:23:06;9.30;99.90
23731;DHT22;12046;44.702;10.622;2022-11-15T00:25:32;9.40;99.90
23731;DHT22;12046;44.702;10.622;2022-11-15T00:27:59;9.40;99.90
23731;DHT22;12046;44.702;10.622;2022-11-15T00:30:26;9.40;99.90
23731;DHT22;12046;44.702;10.622;2022-11-15T00:32:52;9.30;99.90
23731;DHT22;12046;44.702;10.622;2022-11-15T00:35:19;9.30;99.90
23731;DHT22;12046;44.702;10.622;2022-11-15T00:37:45;9.20;99.90
23731;DHT22;12046;44.702;10.622;2022-11-15T00:40:13;9.20;99.90
23731;DHT22;12046;44.702;10.622;2022-11-15T00:42:39;9.20;99.90
23731;DHT22;12046;44.702;10.622;2022-11-15T00:45:06;9.20;99.90
23731;DHT22;12046;44.702;10.622;2022-11-15T00:47:32;9.20;99.90
23731;DHT22;12046;44.702;10.622;2022-11-15T00:49:58;9.20;99.90
23731;DHT22;12046;44.702;10.622;2022-11-15T00:52:24;9.20;99.90
23731;DHT22;12046;44.702;10.622;2022-11-15T00:54:50;9.20;99.90
23731;DHT22;12046;44.702;10.622;2022-11-15T00:57:16;9.20;99.90
23731;DHT22;12046;44.702;10.622;2022-11-15T00:59:42;9.20;99.90
23731;DHT22;12046;44.702;10.622;2022-11-15T01:02:08;9.20;99.90
23731;DHT22;12046;44.702;10.622;2022-11-15T01:04:34;9.20;99.90
23731;DHT22;12046;44.702;10.622;2022-11-15T01:07:02;9.20;99.90
23731;DHT22;12046;44.702;10.622;2022-11-15T01:09:28;9.20;99.90
23731;DHT22;12046;44.702;10.622;2022-11-15T01:11:54;9.20;99.90
23731;DHT22;12046;44.702;10.622;2022-11-15T01:14:20;9.20;99.90
23731;DHT22;12046;44.702;10.622;2022-11-15T01:16:46;9.20;99.90
23731;DHT22;12046;44.702;10.622;2022-11-15T01:19:11;9.20;99.90
23731;DHT22;12046;44.702;10.622;2022-11-15T01:21:37;9.20;99.90
23731;DHT22;12046;44.702;10.622;2022-11-15T01:24:03;9.20;99.90
23731;DHT22;12046;44.702;10.622;2022-11-15T01:26:29;9.20;99.90
23731;DHT22;12046;44.702;10.622;2022-11-15T01:28:55;9.10;99.90
23731;DHT22;12046;44.702;10.622;2022-11-15T01:31:21;9.10;99.90
23731;DHT22;12046;44.702;10.622;2022-11-15T01:33:48;9.10;99.90
23731;DHT22;12046;44.702;10.622;2022-11-15T01:36:17;9.10;99.90
23731;DHT22;12046;44.702;10.622;2022-11-15T01:38:46;9.10;99.90
23731;DHT22;12046;44.702;10.622;2022-11-15T01:41:18;9.10;99.90
23731;DHT22;12046;44.702;10.622;2022-11-15T01:43:44;9.10;99.90
23731;DHT22;12046;44.702;10.622;2022-11-15T01:46:29;9.10;99.90
23731;DHT22;12046;44.702;10.622;2022-11-15T01:48:59;9.10;99.90
23731;DHT22;12046;44.702;10.622;2022-11-15T01:51:26;9.00;99.90
23731;DHT22;12046;44.702;10.622;2022-11-15T01:53:56;9.00;99.90
23731;DHT22;12046;44.702;10.622;2022-11-15T01:56:28;9.00;99.90
23731;DHT22;12046;44.702;10.622;2022-11-15T01:58:57;9.00;99.90
23731;DHT22;12046;44.702;10.622;2022-11-15T02:01:25;9.00;99.90
23731;DHT22;12046;44.702;10.622;2022-11-15T02:04:31;9.00;99.90
23731;DHT22;12046;44.702;10.622;2022-11-15T02:06:49;8.90;99.90
23731;DHT22;12046;44.702;10.622;2022-11-15T02:09:16;8.90;99.90
23731;DHT22;12046;44.702;10.622;2022-11-15T02:11:43;8.90;99.90
23731;DHT22;12046;44.702;10.622;2022-11-15T02:14:10;8.90;99.90
23731;DHT22;12046;44.702;10.622;2022-11-15T02:35:57;8.90;99.90
23731;DHT22;12046;44.702;10.622;2022-11-15T02:41:15;8.90;99.90
23731;DHT22;12046;44.702;10.622;2022-11-15T02:46:23;8.90;99.90
23731;DHT22;12046;44.702;10.622;2022-11-15T02:49:14;8.80;99.90
23731;DHT22;12046;44.702;10.622;2022-11-15T02:51:41;8.80;99.90
23731;DHT22;12046;44.702;10.622;2022-11-15T02:54:10;8.80;99.90
23731;DHT22;12046;44.702;10.622;2022-11-15T02:56:37;8.80;99.90
23731;DHT22;12046;44.702;10.622;2022-11-15T02:59:24;8.80;99.90
23731;DHT22;12046;44.702;10.622;2022-11-15T03:02:22;8.80;99.90
23731;DHT22;12046;44.702;10.622;2022-11-15T03:07:51;8.80;99.90
23731;DHT22;12046;44.702;10.622;2022-11-15T03:10:21;8.90;99.90
23731;DHT22;12046;44.702;10.622;2022-11-15T03:12:54;8.90;99.90
23731;DHT22;12046;44.702;10.622;2022-11-15T03:15:27;8.90;99.90
23731;DHT22;12046;44.702;10.622;2022-11-15T03:18:04;8.90;99.90
23731;DHT22;12046;44.702;10.622;2022-11-15T03:20:32;8.90;99.90
23731;DHT22;12046;44.702;10.622;2022-11-15T03:23:04;8.90;99.90
23731;DHT22;12046;44.702;10.622;2022-11-15T03:25:32;8.90;99.90
23731;DHT22;12046;44.702;10.622;2022-11-15T03:28:01;8.90;99.90
23731;DHT22;12046;44.702;10.622;2022-11-15T03:30:31;8.90;99.90
23731;DHT22;12046;44.702;10.622;2022-11-15T03:32:58;9.00;99.90
23731;DHT22;12046;44.702;10.622;2022-11-15T03:35:29;9.00;99.90
23731;DHT22;12046;44.702;10.622;2022-11-15T03:40:47;9.00;99.90
23731;DHT22;12046;44.702;10.622;2022-11-15T03:46:28;9.10;99.90
23731;DHT22;12046;44.702;10.622;2022-11-15T03:49:07;9.10;99.90
23731;DHT22;12046;44.702;10.622;2022-11-15T03:51:35;9.20;99.90
23731;DHT22;12046;44.702;10.622;2022-11-15T03:54:05;9.20;99.90
23731;DHT22;12046;44.702;10.622;2022-11-15T03:56:31;9.20;99.90
23731;DHT22;12046;44.702;10.622;2022-11-15T03:58:57;9.20;99.90
23731;DHT22;12046;44.702;10.622;2022-11-15T04:01:23;9.20;99.90
23731;DHT22;12046;44.702;10.622;2022-11-15T04:03:49;9.20;99.90
23731;DHT22;12046;44.702;10.622;2022-11-15T04:06:15;9.20;99.90
23731;DHT22;12046;44.702;10.622;2022-11-15T04:08:41;9.20;99.90
23731;DHT22;12046;44.702;10.622;2022-11-15T04:11:07;9.20;99.90
23731;DHT22;12046;44.702;10.622;2022-11-15T04:13:33;9.20;99.90
23731;DHT22;12046;44.702;10.622;2022-11-15T04:15:59;9.00;99.90
23731;DHT22;12046;44.702;10.622;2022-11-15T04:18:25;8.90;99.90
23731;DHT22;12046;44.702;10.622;2022-11-15T04:20:51;8.80;99.90
23731;DHT22;12046;44.702;10.622;2022-11-15T04:23:46;8.80;99.90
23731;DHT22;12046;44.702;10.622;2022-11-15T04:26:30;8.80;99.90
23731;DHT22;12046;44.702;10.622;2022-11-15T04:28:57;8.70;99.90
23731;DHT22;12046;44.702;10.622;2022-11-15T04:31:41;8.60;99.90
23731;DHT22;12046;44.702;10.622;2022-11-15T04:34:07;8.50;99.90
23731;DHT22;12046;44.702;10.622;2022-11-15T04:36:33;8.50;99.90
23731;DHT22;12046;44.702;10.622;2022-11-15T04:39:17;8.50;99.90
23731;DHT22;12046;44.702;10.622;2022-11-15T04:41:43;8.40;99.90
23731;DHT22;12046;44.702;10.622;2022-11-15T04:44:09;8.50;99.90
23731;DHT22;12046;44.702;10.622;2022-11-15T04:46:35;8.50;99.90
23731;DHT22;12046;44.702;10.622;2022-11-15T04:49:01;8.60;99.90
23731;DHT22;12046;44.702;10.622;2022-11-15T04:51:28;8.60;99.90
23731;DHT22;12046;44.702;10.622;2022-11-15T04:53:54;8.70;99.90
23731;DHT22;12046;44.702;10.622;2022-11-15T04:56:20;8.70;99.90
23731;DHT22;12046;44.702;10.622;2022-11-15T04:58:49;8.70;99.90
23731;DHT22;12046;44.702;10.622;2022-11-15T05:01:15;8.60;99.90
23731;DHT22;12046;44.702;10.622;2022-11-15T05:03:41;8.60;99.90
23731;DHT22;12046;44.702;10.622;2022-11-15T05:06:26;8.70;99.90
23731;DHT22;12046;44.702;10.622;2022-11-15T05:08:52;8.70;99.90
23731;DHT22;12046;44.702;10.622;2022-11-15T05:11:18;8.70;99.90
23731;DHT22;12046;44.702;10.622;2022-11-15T05:13:44;8.80;99.90
23731;DHT22;12046;44.702;10.622;2022-11-15T05:16:10;8.80;99.90
23731;DHT22;12046;44.702;10.622;2022-11-15T05:18:35;8.90;99.90
23731;DHT22;12046;44.702;10.622;2022-11-15T05:21:12;8.90;99.90
23731;DHT22;12046;44.702;10.622;2022-11-15T05:23:39;8.90;99.90
23731;DHT22;12046;44.702;10.622;2022-11-15T05:26:06;9.00;99.90
23731;DHT22;12046;44.702;10.622;2022-11-15T05:28:32;9.10;99.90
23731;DHT22;12046;44.702;10.622;2022-11-15T05:31:03;9.10;99.90
23731;DHT22;12046;44.702;10.622;2022-11-15T05:33:30;9.10;99.90
23731;DHT22;12046;44.702;10.622;2022-11-15T05:38:37;9.20;99.90
23731;DHT22;12046;44.702;10.622;2022-11-15T05:41:04;9.30;99.90
23731;DHT22;12046;44.702;10.622;2022-11-15T05:43:32;9.30;99.90
23731;DHT22;12046;44.702;10.622;2022-11-15T05:46:00;9.40;99.90
23731;DHT22;12046;44.702;10.622;2022-11-15T05:48:27;9.40;99.90
23731;DHT22;12046;44.702;10.622;2022-11-15T05:50:53;9.40;99.90
23731;DHT22;12046;44.702;10.622;2022-11-15T05:53:21;9.40;99.90
23731;DHT22;12046;44.702;10.622;2022-11-15T05:55:48;9.50;99.90
23731;DHT22;12046;44.702;10.622;2022-11-15T05:58:15;9.50;99.90
23731;DHT22;12046;44.702;10.622;2022-11-15T06:00:41;9.50;99.90
23731;DHT22;12046;44.702;10.622;2022-11-15T06:03:09;9.50;99.90
23731;DHT22;12046;44.702;10.622;2022-11-15T06:05:35;9.50;99.90
23731;DHT22;12046;44.702;10.622;2022-11-15T06:08:00;9.50;99.90
23731;DHT22;12046;44.702;10.622;2022-11-15T06:10:26;9.50;99.90
23731;DHT22;12046;44.702;10.622;2022-11-15T06:13:03;9.50;99.90
23731;DHT22;12046;44.702;10.622;2022-11-15T06:15:29;9.60;99.90
23731;DHT22;12046;44.702;10.622;2022-11-15T06:17:58;9.60;99.90
23731;DHT22;12046;44.702;10.622;2022-11-15T06:20:26;9.60;99.90
23731;DHT22;12046;44.702;10.622;2022-11-15T06:22:59;9.70;99.90
23731;DHT22;12046;44.702;10.622;2022-11-15T06:25:26;9.80;99.90
23731;DHT22;12046;44.702;10.622;2022-11-15T06:27:57;9.90;99.90
23731;DHT22;12046;44.702;10.622;2022-11-15T06:30:26;9.90;99.90
23731;DHT22;12046;44.702;10.622;2022-11-15T06:32:59;9.90;99.90
23731;DHT22;12046;44.702;10.622;2022-11-15T06:35:25;10.00;99.90
23731;DHT22;12046;44.702;10.622;2022-11-15T06:37:51;10.00;99.90
23731;DHT22;12046;44.702;10.622;2022-11-15T06:40:17;10.00;99.90
23731;DHT22;12046;44.702;10.622;2022-11-15T06:42:43;10.00;99.90
23731;DHT22;12046;44.702;10.622;2022-11-15T06:45:09;10.00;99.90
23731;DHT22;12046;44.702;10.622;2022-11-15T06:47:35;10.00;99.90
23731;DHT22;12046;44.702;10.622;2022-11-15T06:50:01;10.00;99.90
23731;DHT22;12046;44.702;10.622;2022-11-15T06:52:27;10.10;99.90
23731;DHT22;12046;44.702;10.622;2022-11-15T06:54:57;10.10;99.90
23731;DHT22;12046;44.702;10.622;2022-11-15T06:57:23;10.00;99.90
23731;DHT22;12046;44.702;10.622;2022-11-15T06:59:49;10.10;99.90
23731;DHT22;12046;44.702;10.622;2022-11-15T07:02:15;10.10;99.90
23731;DHT22;12046;44.702;10.622;2022-11-15T07:04:41;10.10;99.90
23731;DHT22;12046;44.702;10.622;2022-11-15T07:07:07;10.00;99.90
23731;DHT22;12046;44.702;10.622;2022-11-15T07:09:33;10.00;99.90
23731;DHT22;12046;44.702;10.622;2022-11-15T07:11:59;10.00;99.90
23731;DHT22;12046;44.702;10.622;2022-11-15T07:14:25;10.00;99.90
23731;DHT22;12046;44.702;10.622;2022-11-15T07:16:51;10.00;99.90
23731;DHT22;12046;44.702;10.622;2022-11-15T07:19:17;10.00;99.90
23731;DHT22;12046;44.702;10.622;2022-11-15T07:21:43;10.00;99.90
23731;DHT22;12046;44.702;10.622;2022-11-15T07:24:09;10.10;99.90
23731;DHT22;12046;44.702;10.622;2022-11-15T07:26:35;10.10;99.90
23731;DHT22;12046;44.702;10.622;2022-11-15T07:29:01;10.10;99.90
23731;DHT22;12046;44.702;10.622;2022-11-15T07:31:27;10.10;99.90
23731;DHT22;12046;44.702;10.622;2022-11-15T07:33:53;10.20;99.90
23731;DHT22;12046;44.702;10.622;2022-11-15T07:36:18;10.20;99.90
23731;DHT22;12046;44.702;10.622;2022-11-15T07:38:44;10.30;99.90
23731;DHT22;12046;44.702;10.622;2022-11-15T07:41:10;10.30;99.90
23731;DHT22;12046;44.702;10.622;2022-11-15T07:43:36;10.30;99.90
23731;DHT22;12046;44.702;10.622;2022-11-15T07:46:06;10.40;99.90
23731;DHT22;12046;44.702;10.622;2022-11-15T07:48:38;10.50;99.90
23731;DHT22;12046;44.702;10.622;2022-11-15T07:51:06;10.40;99.90
23731;DHT22;12046;44.702;10.622;2022-11-15T07:53:32;10.50;99.90
23731;DHT22;12046;44.702;10.622;2022-11-15T07:55:58;10.50;99.90
23731;DHT22;12046;44.702;10.622;2022-11-15T07:58:24;10.50;99.90
23731;DHT22;12046;44.702;10.622;2022-11-15T08:00:50;10.50;99.90
23731;DHT22;12046;44.702;10.622;2022-11-15T08:03:16;10.50;99.90
23731;DHT22;12046;44.702;10.622;2022-11-15T08:05:43;10.50;99.90
23731;DHT22;12046;44.702;10.622;2022-11-15T08:08:22;10.60;99.90
23731;DHT22;12046;44.702;10.622;2022-11-15T08:10:48;10.60;99.90
23731;DHT22;12046;44.702;10.622;2022-11-15T08:13:14;10.70;99.90
23731;DHT22;12046;44.702;10.622;2022-11-15T08:15:40;10.70;99.90
23731;DHT22;12046;44.702;10.622;2022-11-15T08:18:12;10.60;99.90
23731;DHT22;12046;44.702;10.622;2022-11-15T08:20:39;10.60;99.90
23731;DHT22;12046;44.702;10.622;2022-11-15T08:23:05;10.70;99.90
23731;DHT22;12046;44.702;10.622;2022-11-15T08:25:32;10.70;99.90
23731;DHT22;12046;44.702;10.622;2022-11-15T08:28:01;10.80;99.90
23731;DHT22;12046;44.702;10.622;2022-11-15T08:30:28;10.70;99.90
23731;DHT22;12046;44.702;10.622;2022-11-15T08:32:57;10.70;99.90
23731;DHT22;12046;44.702;10.622;2022-11-15T08:35:23;10.70;99.90
23731;DHT22;12046;44.702;10.622;2022-11-15T08:37:49;10.70;99.90
23731;DHT22;12046;44.702;10.622;2022-11-15T08:40:15;10.60;99.90
23731;DHT22;12046;44.702;10.622;2022-11-15T08:42:41;10.60;99.90
23731;DHT22;12046;44.702;10.622;2022-11-15T08:45:08;10.70;99.90
23731;DHT22;12046;44.702;10.622;2022-11-15T08:47:34;10.70;99.90
23731;DHT22;12046;44.702;10.622;2022-11-15T08:50:00;10.80;99.90
23731;DHT22;12046;44.702;10.622;2022-11-15T08:52:26;10.90;99.90
23731;DHT22;12046;44.702;10.622;2022-11-15T08:54:52;11.00;99.90
23731;DHT22;12046;44.702;10.622;2022-11-15T08:57:18;11.00;99.90
23731;DHT22;12046;44.702;10.622;2022-11-15T08:59:44;11.10;99.90
23731;DHT22;12046;44.702;10.622;2022-11-15T09:02:12;11.20;99.90
23731;DHT22;12046;44.702;10.622;2022-11-15T09:04:40;11.20;99.90
23731;DHT22;12046;44.702;10.622;2022-11-15T09:07:10;11.20;99.90
23731;DHT22;12046;44.702;10.622;2022-11-15T09:09:36;11.30;99.90
23731;DHT22;12046;44.702;10.622;2022-11-15T09:12:03;11.40;99.90
23731;DHT22;12046;44.702;10.622;2022-11-15T09:14:29;11.40;99.90
23731;DHT22;12046;44.702;10.622;2022-11-15T09:16:55;11.50;99.90
23731;DHT22;12046;44.702;10.622;2022-11-15T09:19:21;11.60;99.90
23731;DHT22;12046;44.702;10.622;2022-11-15T09:21:47;11.60;99.90
23731;DHT22;12046;44.702;10.622;2022-11-15T09:24:13;11.60;99.90
23731;DHT22;12046;44.702;10.622;2022-11-15T09:26:39;11.60;99.90
23731;DHT22;12046;44.702;10.622;2022-11-15T09:29:06;11.60;99.90
23731;DHT22;12046;44.702;10.622;2022-11-15T09:31:32;11.60;99.90
23731;DHT22;12046;44.702;10.622;2022-11-15T09:33:58;11.50;99.90
23731;DHT22;12046;44.702;10.622;2022-11-15T09:36:28;11.50;99.90
23731;DHT22;12046;44.702;10.622;2022-11-15T09:38:54;11.50;99.90
23731;DHT22;12046;44.702;10.622;2022-11-15T09:49:08;11.30;99.90
23731;DHT22;12046;44.702;10.622;2022-11-15T09:51:38;11.30;99.90
23731;DHT22;12046;44.702;10.622;2022-11-15T09:54:30;11.40;99.90
23731;DHT22;12046;44.702;10.622;2022-11-15T09:57:14;11.40;99.90
23731;DHT22;12046;44.702;10.622;2022-11-15T10:00:02;11.40;99.90
23731;DHT22;12046;44.702;10.622;2022-11-15T10:03:11;11.40;99.90
23731;DHT22;12046;44.702;10.622;2022-11-15T10:05:43;11.50;99.90
23731;DHT22;12046;44.702;10.622;2022-11-15T10:11:19;11.60;99.90
23731;DHT22;12046;44.702;10.622;2022-11-15T10:13:47;11.60;99.90
23731;DHT22;12046;44.702;10.622;2022-11-15T10:22:27;11.80;99.90
23731;DHT22;12046;44.702;10.622;2022-11-15T10:27:32;11.80;99.90
23731;DHT22;12046;44.702;10.622;2022-11-15T10:29:59;11.90;99.90
23731;DHT22;12046;44.702;10.622;2022-11-15T10:32:25;11.90;99.90
23731;DHT22;12046;44.702;10.622;2022-11-15T10:34:52;12.00;99.90
23731;DHT22;12046;44.702;10.622;2022-11-15T10:37:44;12.10;99.90
23731;DHT22;12046;44.702;10.622;2022-11-15T10:40:22;12.10;99.90
23731;DHT22;12046;44.702;10.622;2022-11-15T10:45:36;12.20;99.90
23731;DHT22;12046;44.702;10.622;2022-11-15T10:50:39;12.20;99.90
23731;DHT22;12046;44.702;10.622;2022-11-15T10:55:48;12.20;99.90
23731;DHT22;12046;44.702;10.622;2022-11-15T11:00:47;12.30;99.90
23731;DHT22;12046;44.702;10.622;2022-11-15T11:06:10;12.40;99.90
23731;DHT22;12046;44.702;10.622;2022-11-15T11:08:37;12.40;99.90
23731;DHT22;12046;44.702;10.622;2022-11-15T11:11:04;12.40;99.90
23731;DHT22;12046;44.702;10.622;2022-11-15T11:13:35;12.50;99.90
23731;DHT22;12046;44.702;10.622;2022-11-15T11:21:13;12.40;99.90
23731;DHT22;12046;44.702;10.622;2022-11-15T11:23:58;12.40;99.90
23731;DHT22;12046;44.702;10.622;2022-11-15T11:26:42;12.40;99.90
23731;DHT22;12046;44.702;10.622;2022-11-15T11:29:26;12.30;99.90
23731;DHT22;12046;44.702;10.622;2022-11-15T11:32:20;12.30;99.90
23731;DHT22;12046;44.702;10.622;2022-11-15T11:45:44;12.10;99.90
23731;DHT22;12046;44.702;10.622;2022-11-15T11:48:29;12.20;99.90
23731;DHT22;12046;44.702;10.622;2022-11-15T11:54:14;12.20;99.90
23731;DHT22;12046;44.702;10.622;2022-11-15T11:56:45;12.20;99.90
23731;DHT22;12046;44.702;10.622;2022-11-15T11:59:33;12.10;99.90
23731;DHT22;12046;44.702;10.622;2022-11-15T12:02:20;12.10;99.90
23731;DHT22;12046;44.702;10.622;2022-11-15T12:04:52;12.10;99.90
23731;DHT22;12046;44.702;10.622;2022-11-15T12:07:25;12.10;99.90
23731;DHT22;12046;44.702;10.622;2022-11-15T12:10:26;12.10;99.90
23731;DHT22;12046;44.702;10.622;2022-11-15T12:12:58;12.10;99.90
23731;DHT22;12046;44.702;10.622;2022-11-15T12:15:31;12.20;99.90
23731;DHT22;12046;44.702;10.622;2022-11-15T12:18:00;12.20;99.90
23731;DHT22;12046;44.702;10.622;2022-11-15T12:20:32;12.20;99.90
23731;DHT22;12046;44.702;10.622;2022-11-15T12:23:12;12.20;99.90
23731;DHT22;12046;44.702;10.622;2022-11-15T12:25:53;12.20;99.90
23731;DHT22;12046;44.702;10.622;2022-11-15T12:28:38;12.30;99.90
23731;DHT22;12046;44.702;10.622;2022-11-15T12:31:12;12.30;99.90
23731;DHT22;12046;44.702;10.622;2022-11-15T12:33:43;12.20;99.90
23731;DHT22;12046;44.702;10.622;2022-11-15T12:41:28;12.20;99.90
23731;DHT22;12046;44.702;10.622;2022-11-15T12:43:56;12.20;99.90
23731;DHT22;12046;44.702;10.622;2022-11-15T12:48:57;12.20;99.90
23731;DHT22;12046;44.702;10.622;2022-11-15T13:00:02;12.10;99.90
23731;DHT22;12046;44.702;10.622;2022-11-15T13:02:44;12.00;99.90
23731;DHT22;12046;44.702;10.622;2022-11-15T13:22:52;12.00;99.90
23731;DHT22;12046;44.702;10.622;2022-11-15T13:33:36;11.90;99.90
23731;DHT22;12046;44.702;10.622;2022-11-15T13:36:06;11.90;99.90
23731;DHT22;12046;44.702;10.622;2022-11-15T13:38:35;11.80;99.90
23731;DHT22;12046;44.702;10.622;2022-11-15T13:41:30;11.80;99.90
23731;DHT22;12046;44.702;10.622;2022-11-15T13:43:57;11.80;99.90
23731;DHT22;12046;44.702;10.622;2022-11-15T13:46:34;11.90;99.90
23731;DHT22;12046;44.702;10.622;2022-11-15T13:54:23;11.90;99.90
23731;DHT22;12046;44.702;10.622;2022-11-15T13:56:54;11.90;99.90
23731;DHT22;12046;44.702;10.622;2022-11-15T13:59:35;11.90;99.90
23731;DHT22;12046;44.702;10.622;2022-11-15T14:02:14;11.80;99.90
23731;DHT22;12046;44.702;10.622;2022-11-15T14:04:59;11.80;99.90
23731;DHT22;12046;44.702;10.622;2022-11-15T14:07:27;11.70;99.90
23731;DHT22;12046;44.702;10.622;2022-11-15T14:09:54;11.60;99.90
23731;DHT22;12046;44.702;10.622;2022-11-15T14:12:31;11.60;99.90
23731;DHT22;12046;44.702;10.622;2022-11-15T14:17:53;11.60;99.90
23731;DHT22;12046;44.702;10.622;2022-11-15T14:22:57;11.60;99.90
23731;DHT22;12046;44.702;10.622;2022-11-15T14:25:31;11.60;99.90
23731;DHT22;12046;44.702;10.622;2022-11-15T14:30:35;11.60;99.90
23731;DHT22;12046;44.702;10.622;2022-11-15T14:33:02;11.70;99.90
23731;DHT22;12046;44.702;10.622;2022-11-15T14:35:39;11.70;99.90
23731;DHT22;12046;44.702;10.622;2022-11-15T14:38:05;11.80;99.90
23731;DHT22;12046;44.702;10.622;2022-11-15T14:40:33;11.80;99.90
23731;DHT22;12046;44.702;10.622;2022-11-15T14:42:59;11.90;99.90
23731;DHT22;12046;44.702;10.622;2022-11-15T14:45:27;11.80;99.90
23731;DHT22;12046;44.702;10.622;2022-11-15T14:47:53;11.80;99.90
23731;DHT22;12046;44.702;10.622;2022-11-15T14:50:21;11.70;99.90
23731;DHT22;12046;44.702;10.622;2022-11-15T14:52:48;11.70;99.90
23731;DHT22;12046;44.702;10.622;2022-11-15T14:55:27;11.60;99.90
23731;DHT22;12046;44.702;10.622;2022-11-15T14:57:55;11.60;99.90
23731;DHT22;12046;44.702;10.622;2022-11-15T15:00:21;11.50;99.90
23731;DHT22;12046;44.702;10.622;2022-11-15T15:02:48;11.50;99.90
23731;DHT22;12046;44.702;10.622;2022-11-15T15:05:25;11.40;99.90
23731;DHT22;12046;44.702;10.622;2022-11-15T15:07:52;11.40;99.90
23731;DHT22;12046;44.702;10.622;2022-11-15T15:10:21;11.40;99.90
23731;DHT22;12046;44.702;10.622;2022-11-15T15:12:47;11.30;99.90
23731;DHT22;12046;44.702;10.622;2022-11-15T15:15:21;11.30;99.90
23731;DHT22;12046;44.702;10.622;2022-11-15T15:17:49;11.30;99.90
23731;DHT22;12046;44.702;10.622;2022-11-15T15:20:16;11.30;99.90
23731;DHT22;12046;44.702;10.622;2022-11-15T15:22:42;11.30;99.90
23731;DHT22;12046;44.702;10.622;2022-11-15T15:27:48;11.30;99.90
23731;DHT22;12046;44.702;10.622;2022-11-15T15:30:15;11.40;99.90
23731;DHT22;12046;44.702;10.622;2022-11-15T15:32:41;11.40;99.90
23731;DHT22;12046;44.702;10.622;2022-11-15T15:35:10;11.40;99.90
23731;DHT22;12046;44.702;10.622;2022-11-15T15:37:36;11.40;99.90
23731;DHT22;12046;44.702;10.622;2022-11-15T15:40:03;11.40;99.90
23731;DHT22;12046;44.702;10.622;2022-11-15T15:42:29;11.40;99.90
23731;DHT22;12046;44.702;10.622;2022-11-15T15:44:55;11.40;99.90
23731;DHT22;12046;44.702;10.622;2022-11-15T15:47:22;11.40;99.90
23731;DHT22;12046;44.702;10.622;2022-11-15T15:49:49;11.40;99.90
23731;DHT22;12046;44.702;10.622;2022-11-15T15:52:16;11.40;99.90
23731;DHT22;12046;44.702;10.622;2022-11-15T15:54:42;11.40;99.90
23731;DHT22;12046;44.702;10.622;2022-11-15T15:57:11;11.30;99.90
23731;DHT22;12046;44.702;10.622;2022-11-15T15:59:37;11.40;99.90
23731;DHT22;12046;44.702;10.622;2022-11-15T16:02:04;11.40;99.90
23731;DHT22;12046;44.702;10.622;2022-11-15T16:04:30;11.40;99.90
23731;DHT22;12046;44.702;10.622;2022-11-15T16:07:00;11.40;99.90
23731;DHT22;12046;44.702;10.622;2022-11-15T16:09:26;11.30;99.90
23731;DHT22;12046;44.702;10.622;2022-11-15T16:12:11;11.30;99.90
23731;DHT22;12046;44.702;10.622;2022-11-15T16:14:37;11.30;99.90
23731;DHT22;12046;44.702;10.622;2022-11-15T16:17:03;11.30;99.90
23731;DHT22;12046;44.702;10.622;2022-11-15T16:19:29;11.20;99.90
23731;DHT22;12046;44.702;10.622;2022-11-15T16:21:55;11.20;99.90
23731;DHT22;12046;44.702;10.622;2022-11-15T16:24:21;11.20;99.90
23731;DHT22;12046;44.702;10.622;2022-11-15T16:26:48;11.20;99.90
23731;DHT22;12046;44.702;10.622;2022-11-15T16:29:15;11.20;99.90
23731;DHT22;12046;44.702;10.622;2022-11-15T16:31:41;11.20;99.90
23731;DHT22;12046;44.702;10.622;2022-11-15T16:34:07;11.20;99.90
23731;DHT22;12046;44.702;10.622;2022-11-15T16:36:34;11.20;99.90
23731;DHT22;12046;44.702;10.622;2022-11-15T16:39:01;11.30;99.90
23731;DHT22;12046;44.702;10.622;2022-11-15T16:41:32;11.30;99.90
23731;DHT22;12046;44.702;10.622;2022-11-15T16:43:58;11.30;99.90
23731;DHT22;12046;44.702;10.622;2022-11-15T16:46:25;11.30;99.90
23731;DHT22;12046;44.702;10.622;2022-11-15T16:48:52;11.30;99.90
23731;DHT22;12046;44.702;10.622;2022-11-15T16:51:19;11.30;99.90
23731;DHT22;12046;44.702;10.622;2022-11-15T16:53:45;11.30;99.90
23731;DHT22;12046;44.702;10.622;2022-11-15T16:56:27;11.30;99.90
23731;DHT22;12046;44.702;10.622;2022-11-15T16:58:55;11.30;99.90
23731;DHT22;12046;44.702;10.622;2022-11-15T17:01:37;11.30;99.90
23731;DHT22;12046;44.702;10.622;2022-11-15T17:04:15;11.30;99.90
23731;DHT22;12046;44.702;10.622;2022-11-15T17:06:44;11.30;99.90
23731;DHT22;12046;44.702;10.622;2022-11-15T17:09:12;11.40;99.90
23731;DHT22;12046;44.702;10.622;2022-11-15T17:11:40;11.40;99.90
23731;DHT22;12046;44.702;10.622;2022-11-15T17:14:07;11.40;99.90
23731;DHT22;12046;44.702;10.622;2022-11-15T17:16:33;11.30;99.90
23731;DHT22;12046;44.702;10.622;2022-11-15T17:19:00;11.40;99.90
23731;DHT22;12046;44.702;10.622;2022-11-15T17:21:27;11.40;99.90
23731;DHT22;12046;44.702;10.622;2022-11-15T17:23:53;11.30;99.90
23731;DHT22;12046;44.702;10.622;2022-11-15T17:26:20;11.40;99.90
23731;DHT22;12046;44.702;10.622;2022-11-15T17:28:46;11.40;99.90
23731;DHT22;12046;44.702;10.622;2022-11-15T17:31:13;11.30;99.90
23731;DHT22;12046;44.702;10.622;2022-11-15T17:33:39;11.40;99.90
23731;DHT22;12046;44.702;10.622;2022-11-15T17:36:09;11.40;99.90
23731;DHT22;12046;44.702;10.622;2022-11-15T17:38:36;11.30;99.90
23731;DHT22;12046;44.702;10.622;2022-11-15T17:41:13;11.30;99.90
23731;DHT22;12046;44.702;10.622;2022-11-15T17:43:39;11.30;99.90
23731;DHT22;12046;44.702;10.622;2022-11-15T17:46:08;11.30;99.90
23731;DHT22;12046;44.702;10.622;2022-11-15T17:48:35;11.40;99.90
23731;DHT22;12046;44.702;10.622;2022-11-15T17:51:03;11.30;99.90
23731;DHT22;12046;44.702;10.622;2022-11-15T17:53:34;11.30;99.90
23731;DHT22;12046;44.702;10.622;2022-11-15T17:56:06;11.30;99.90
23731;DHT22;12046;44.702;10.622;2022-11-15T17:58:32;11.30;99.90
23731;DHT22;12046;44.702;10.622;2022-11-15T18:03:36;11.30;99.90
23731;DHT22;12046;44.702;10.622;2022-11-15T18:06:04;11.30;99.90